Prather, CA

10:19 PM PST on December 24, 2014 (GMT -0800)
APRSWXNET Prather CA US | Change Station
CLOSE
Current Station
Personal Weather Station
Location: Prather, CA
Elevation: 1643 ft
Nearby Weather Stations

Elev 1643 ft 37.04 °N, 119.53 °W | Updated 34 minutes ago

Mostly Cloudy
Mostly Cloudy
46 °F
Feels Like 46 °F
N
3
Wind Variable Wind from WSW
Gusts 10.0 mph

Today
High -- | Low -- °F
--% Chance of Precip.
Yesterday
High -- | Low -- °F
Precip. -- in
7:09 AM 4:46 PM
Waxing Crescent, 14% visible
Pressure 29.93 in
Visibility 10.0 miles
Clouds Few 2300 ft
Few 6000 ft
Windchill 46 °F
Dew Point 43 °F
Humidity 90%
Rainfall 0.09 in
Snow Depth Not available.
UV 0 out of 12
Pollen 3.40 out of 12
Air Quality Not available.
Flu Activity Not available.
METAR KFAT 250553Z 30011KT 10SM FEW023 FEW060 10/07 A2993 RMK AO2 SLP134 60000 T01000067 10144 20100 53009

More Conditions Fewer Conditions

Pressure 29.93 in
Visibility 10.0 miles
Clouds Few 2300 ft
Few 6000 ft
Windchill 46 °F
Dew Point 43 °F
Humidity 90%
Rainfall 0.09 in
Snow Depth Not available.
UV 0 out of 12
Pollen 3.40 out of 12
Air Quality Not available.
Flu Activity Not available.
METAR KFAT 250553Z 30011KT 10SM FEW023 FEW060 10/07 A2993 RMK AO2 SLP134 60000 T01000067 10144 20100 53009

More Conditions Fewer Conditions

10-Day Weather Forecast

Almanac

Astronomy

Dec. 24, 2014 Rise Set
Actual Time
Civil Twilight
Nautical Twilight
Astronomical Twilight
Moon
Length of Visible Light
Length of Day
Tomorrow will be .
, % of the Moon is Illuminated

Today's Extremes

State Highs State Lows

Community

WunderPhotos

Upload Photos

1,780,248 photos uploaded!

WunderBlogs® & News

Nearby

Air Quality

  Air Quality AQ Index Pollutant
Not available.

Snow Depth

Station Depth Elevation

Earthquake Activity

City Distance Mag. Time & Date
Minimum magnitude displayed is 2.5.

Coastal Water Temperatures

Place Temperature

Nearby Weather Stations